Anaktuvuk Pass, Alaska
Current Conditions -  °F | °C
As of 2:36 AM on Friday 24 Oct 2014 (Local Time) from PAKP Reporting Station
Overcast Overcast  
Wind Chill: -13°   Ceiling: 7000
Heat Index: -7°   Visibility: 10mi
Dew Point: -10°   Wind: 10mph
Humidity: 80%   Direction: 230°SW
Pressure: 29.61"   Gusts: NA
Location:  68.14°N, 151.74°W
Report Text: PAKP 241036Z AUTO 23009KT 10SM OVC070 M07/M10 A2961 RMK AO1
Loading
Personal Weather Stations






























Interactive Weather Map
Tropical Storm Tracking
New forecast layout! Learn more

10-Day Weather Forecast

Advertisements
Track Severe Weather on mobile